sensor_id;sensor_type;location;lat;lon;timestamp;P1;P2;P0
20157;PMS5003;10239;56.820;24.416;2023-03-15T00:02:05;12.20;11.80;4.00
20157;PMS5003;10239;56.820;24.416;2023-03-15T00:04:33;17.20;12.80;6.00
20157;PMS5003;10239;56.820;24.416;2023-03-15T00:07:01;15.00;8.40;4.80
20157;PMS5003;10239;56.820;24.416;2023-03-15T00:09:28;17.60;9.60;5.00
20157;PMS5003;10239;56.820;24.416;2023-03-15T00:11:56;16.40;12.20;6.20
20157;PMS5003;10239;56.820;24.416;2023-03-15T00:14:24;12.20;10.40;8.00
20157;PMS5003;10239;56.820;24.416;2023-03-15T00:16:51;15.00;11.20;4.40
20157;PMS5003;10239;56.820;24.416;2023-03-15T00:19:20;14.60;12.00;4.00
20157;PMS5003;10239;56.820;24.416;2023-03-15T00:21:48;9.60;9.00;5.00
20157;PMS5003;10239;56.820;24.416;2023-03-15T00:24:15;20.40;16.20;8.00
20157;PMS5003;10239;56.820;24.416;2023-03-15T00:26:43;14.20;12.80;8.00
20157;PMS5003;10239;56.820;24.416;2023-03-15T00:29:10;17.00;12.60;8.40
20157;PMS5003;10239;56.820;24.416;2023-03-15T00:31:38;24.80;15.60;8.00
20157;PMS5003;10239;56.820;24.416;2023-03-15T00:34:05;10.80;9.80;4.40
20157;PMS5003;10239;56.820;24.416;2023-03-15T00:36:33;25.20;15.40;6.00
20157;PMS5003;10239;56.820;24.416;2023-03-15T00:39:01;17.40;12.40;7.80
20157;PMS5003;10239;56.820;24.416;2023-03-15T00:41:29;14.40;10.00;5.00
20157;PMS5003;10239;56.820;24.416;2023-03-15T00:43:58;19.80;14.00;7.00
20157;PMS5003;10239;56.820;24.416;2023-03-15T00:46:25;14.20;10.00;5.80
20157;PMS5003;10239;56.820;24.416;2023-03-15T00:48:53;13.20;12.40;5.40
20157;PMS5003;10239;56.820;24.416;2023-03-15T00:51:22;18.60;13.00;6.00
20157;PMS5003;10239;56.820;24.416;2023-03-15T00:53:51;5.40;5.40;5.00
20157;PMS5003;10239;56.820;24.416;2023-03-15T00:56:23;14.60;14.60;7.40
20157;PMS5003;10239;56.820;24.416;2023-03-15T00:58:52;19.40;13.60;8.40
20157;PMS5003;10239;56.820;24.416;2023-03-15T01:01:24;10.20;10.20;8.20
20157;PMS5003;10239;56.820;24.416;2023-03-15T01:03:54;16.20;13.20;5.80
20157;PMS5003;10239;56.820;24.416;2023-03-15T01:06:24;16.20;12.80;7.00
20157;PMS5003;10239;56.820;24.416;2023-03-15T01:08:54;9.80;9.40;6.00
20157;PMS5003;10239;56.820;24.416;2023-03-15T01:11:24;16.20;10.00;5.60
20157;PMS5003;10239;56.820;24.416;2023-03-15T01:13:54;10.40;7.80;1.20
20157;PMS5003;10239;56.820;24.416;2023-03-15T01:16:23;12.80;11.60;5.00
20157;PMS5003;10239;56.820;24.416;2023-03-15T01:18:51;18.60;13.20;8.00
20157;PMS5003;10239;56.820;24.416;2023-03-15T01:21:19;12.00;11.80;7.80
20157;PMS5003;10239;56.820;24.416;2023-03-15T01:23:48;19.80;14.40;8.00
20157;PMS5003;10239;56.820;24.416;2023-03-15T01:26:20;13.40;10.80;4.60
20157;PMS5003;10239;56.820;24.416;2023-03-15T01:28:47;5.80;4.80;0.00
20157;PMS5003;10239;56.820;24.416;2023-03-15T01:31:18;17.00;13.80;7.20
20157;PMS5003;10239;56.820;24.416;2023-03-15T01:33:48;18.00;14.20;5.60
20157;PMS5003;10239;56.820;24.416;2023-03-15T01:36:16;14.40;11.40;6.20
20157;PMS5003;10239;56.820;24.416;2023-03-15T01:38:45;23.40;20.00;7.40
20157;PMS5003;10239;56.820;24.416;2023-03-15T01:41:15;17.40;14.20;7.80
20157;PMS5003;10239;56.820;24.416;2023-03-15T01:43:44;13.60;13.00;6.80
20157;PMS5003;10239;56.820;24.416;2023-03-15T01:49:01;10.80;8.40;3.00
20157;PMS5003;10239;56.820;24.416;2023-03-15T01:54:40;16.60;14.80;6.40
20157;PMS5003;10239;56.820;24.416;2023-03-15T01:57:17;17.40;14.00;9.00
20157;PMS5003;10239;56.820;24.416;2023-03-15T02:00:11;18.40;16.00;6.80
20157;PMS5003;10239;56.820;24.416;2023-03-15T02:03:11;20.80;15.40;10.00
20157;PMS5003;10239;56.820;24.416;2023-03-15T02:05:48;15.60;12.60;6.40
20157;PMS5003;10239;56.820;24.416;2023-03-15T02:08:38;15.20;10.40;7.20
20157;PMS5003;10239;56.820;24.416;2023-03-15T02:11:10;26.00;17.40;9.40
20157;PMS5003;10239;56.820;24.416;2023-03-15T02:13:40;20.20;14.20;7.40
20157;PMS5003;10239;56.820;24.416;2023-03-15T02:16:09;16.00;13.60;6.80
20157;PMS5003;10239;56.820;24.416;2023-03-15T02:18:43;16.60;14.00;6.60
20157;PMS5003;10239;56.820;24.416;2023-03-15T02:21:13;19.40;14.40;9.00
20157;PMS5003;10239;56.820;24.416;2023-03-15T02:23:53;13.80;11.40;6.40
20157;PMS5003;10239;56.820;24.416;2023-03-15T02:26:39;17.80;16.60;7.20
20157;PMS5003;10239;56.820;24.416;2023-03-15T02:29:11;15.00;14.80;6.60
20157;PMS5003;10239;56.820;24.416;2023-03-15T02:31:39;9.80;9.80;7.00
20157;PMS5003;10239;56.820;24.416;2023-03-15T02:34:07;14.20;12.20;6.20
20157;PMS5003;10239;56.820;24.416;2023-03-15T02:36:35;17.60;15.40;9.00
20157;PMS5003;10239;56.820;24.416;2023-03-15T02:39:17;18.40;17.00;7.80
20157;PMS5003;10239;56.820;24.416;2023-03-15T02:41:47;13.80;10.80;5.40
20157;PMS5003;10239;56.820;24.416;2023-03-15T02:44:47;5.60;5.60;2.80
20157;PMS5003;10239;56.820;24.416;2023-03-15T02:47:17;6.80;5.20;2.40
20157;PMS5003;10239;56.820;24.416;2023-03-15T02:49:51;9.80;4.80;2.00
20157;PMS5003;10239;56.820;24.416;2023-03-15T02:52:20;6.00;6.00;2.20
20157;PMS5003;10239;56.820;24.416;2023-03-15T02:54:48;6.60;5.00;2.00
20157;PMS5003;10239;56.820;24.416;2023-03-15T02:57:17;2.00;0.20;0.00
20157;PMS5003;10239;56.820;24.416;2023-03-15T02:59:46;1.00;1.00;0.40
20157;PMS5003;10239;56.820;24.416;2023-03-15T03:02:17;0.60;0.60;0.00
20157;PMS5003;10239;56.820;24.416;2023-03-15T03:04:45;0.80;0.80;0.00
20157;PMS5003;10239;56.820;24.416;2023-03-15T03:07:13;0.80;0.80;0.00
20157;PMS5003;10239;56.820;24.416;2023-03-15T03:09:52;0.00;0.00;0.00
20157;PMS5003;10239;56.820;24.416;2023-03-15T03:12:21;0.00;0.00;0.00
20157;PMS5003;10239;56.820;24.416;2023-03-15T03:14:48;0.40;0.40;0.00
20157;PMS5003;10239;56.820;24.416;2023-03-15T03:17:20;0.00;0.00;0.00
20157;PMS5003;10239;56.820;24.416;2023-03-15T03:19:47;0.00;0.00;0.00
20157;PMS5003;10239;56.820;24.416;2023-03-15T03:22:19;0.00;0.00;0.00
20157;PMS5003;10239;56.820;24.416;2023-03-15T03:24:50;0.00;0.00;0.00
20157;PMS5003;10239;56.820;24.416;2023-03-15T03:27:18;0.00;0.00;0.00
20157;PMS5003;10239;56.820;24.416;2023-03-15T03:29:48;0.00;0.00;0.00
20157;PMS5003;10239;56.820;24.416;2023-03-15T03:32:16;0.40;0.40;0.00
20157;PMS5003;10239;56.820;24.416;2023-03-15T03:34:44;0.00;0.00;0.00
20157;PMS5003;10239;56.820;24.416;2023-03-15T03:37:18;0.00;0.00;0.00
20157;PMS5003;10239;56.820;24.416;2023-03-15T03:40:06;0.20;0.00;0.00
20157;PMS5003;10239;56.820;24.416;2023-03-15T03:42:35;0.00;0.00;0.00
20157;PMS5003;10239;56.820;24.416;2023-03-15T03:45:03;1.00;0.00;0.00
20157;PMS5003;10239;56.820;24.416;2023-03-15T03:47:35;0.00;0.00;0.00
20157;PMS5003;10239;56.820;24.416;2023-03-15T03:50:03;0.00;0.00;0.00
20157;PMS5003;10239;56.820;24.416;2023-03-15T03:52:31;0.00;0.00;0.00
20157;PMS5003;10239;56.820;24.416;2023-03-15T03:55:04;0.00;0.00;0.00
20157;PMS5003;10239;56.820;24.416;2023-03-15T03:57:32;0.00;0.00;0.00
20157;PMS5003;10239;56.820;24.416;2023-03-15T04:00:00;0.00;0.00;0.00
20157;PMS5003;10239;56.820;24.416;2023-03-15T04:02:29;0.00;0.00;0.00
20157;PMS5003;10239;56.820;24.416;2023-03-15T04:05:00;0.00;0.00;0.00
20157;PMS5003;10239;56.820;24.416;2023-03-15T04:07:28;0.00;0.00;0.00
20157;PMS5003;10239;56.820;24.416;2023-03-15T04:09:56;0.00;0.00;0.00
20157;PMS5003;10239;56.820;24.416;2023-03-15T04:12:23;0.00;0.00;0.00
20157;PMS5003;10239;56.820;24.416;2023-03-15T04:14:53;0.00;0.00;0.00
20157;PMS5003;10239;56.820;24.416;2023-03-15T04:17:23;0.00;0.00;0.00
20157;PMS5003;10239;56.820;24.416;2023-03-15T04:19:50;0.00;0.00;0.00
20157;PMS5003;10239;56.820;24.416;2023-03-15T04:22:24;0.40;0.00;0.00
20157;PMS5003;10239;56.820;24.416;2023-03-15T04:24:51;0.40;0.40;0.00
20157;PMS5003;10239;56.820;24.416;2023-03-15T04:27:36;0.00;0.00;0.00
20157;PMS5003;10239;56.820;24.416;2023-03-15T04:30:22;0.00;0.00;0.00
20157;PMS5003;10239;56.820;24.416;2023-03-15T04:33:25;0.00;0.00;0.00
20157;PMS5003;10239;56.820;24.416;2023-03-15T04:36:10;0.00;0.00;0.00
20157;PMS5003;10239;56.820;24.416;2023-03-15T04:39:02;0.00;0.00;0.00
20157;PMS5003;10239;56.820;24.416;2023-03-15T04:41:58;0.00;0.00;0.00
20157;PMS5003;10239;56.820;24.416;2023-03-15T04:44:46;0.00;0.00;0.00
20157;PMS5003;10239;56.820;24.416;2023-03-15T04:47:33;0.00;0.00;0.00
20157;PMS5003;10239;56.820;24.416;2023-03-15T04:50:20;0.80;0.80;0.00
20157;PMS5003;10239;56.820;24.416;2023-03-15T04:53:02;0.00;0.00;0.00
20157;PMS5003;10239;56.820;24.416;2023-03-15T04:56:02;1.00;1.00;0.00
20157;PMS5003;10239;56.820;24.416;2023-03-15T04:59:01;0.00;0.00;0.00
20157;PMS5003;10239;56.820;24.416;2023-03-15T05:01:47;0.20;0.20;0.00
20157;PMS5003;10239;56.820;24.416;2023-03-15T05:04:42;0.20;0.00;0.00
20157;PMS5003;10239;56.820;24.416;2023-03-15T05:07:28;0.20;0.20;0.00
20157;PMS5003;10239;56.820;24.416;2023-03-15T05:10:16;1.60;0.80;0.00
20157;PMS5003;10239;56.820;24.416;2023-03-15T05:13:04;0.20;0.20;0.00
20157;PMS5003;10239;56.820;24.416;2023-03-15T05:15:44;0.00;0.00;0.00
20157;PMS5003;10239;56.820;24.416;2023-03-15T05:18:44;4.00;2.00;0.00
20157;PMS5003;10239;56.820;24.416;2023-03-15T05:21:30;0.20;0.20;0.00
20157;PMS5003;10239;56.820;24.416;2023-03-15T05:24:20;0.60;0.60;0.00
20157;PMS5003;10239;56.820;24.416;2023-03-15T05:27:06;1.00;1.00;0.00
20157;PMS5003;10239;56.820;24.416;2023-03-15T05:29:57;1.40;1.40;0.20
20157;PMS5003;10239;56.820;24.416;2023-03-15T05:32:38;4.00;1.40;0.20
20157;PMS5003;10239;56.820;24.416;2023-03-15T05:35:48;4.40;2.00;0.00
20157;PMS5003;10239;56.820;24.416;2023-03-15T05:38:37;2.00;0.00;0.00
20157;PMS5003;10239;56.820;24.416;2023-03-15T05:41:20;4.80;1.40;0.00
20157;PMS5003;10239;56.820;24.416;2023-03-15T05:43:59;1.60;1.60;0.00
20157;PMS5003;10239;56.820;24.416;2023-03-15T05:46:53;0.80;0.80;0.00
20157;PMS5003;10239;56.820;24.416;2023-03-15T05:49:56;1.40;0.00;0.00
20157;PMS5003;10239;56.820;24.416;2023-03-15T05:52:34;4.20;0.40;0.00
20157;PMS5003;10239;56.820;24.416;2023-03-15T05:55:19;0.00;0.00;0.00
20157;PMS5003;10239;56.820;24.416;2023-03-15T05:58:16;0.20;0.20;0.00
20157;PMS5003;10239;56.820;24.416;2023-03-15T06:01:10;1.00;1.00;1.00
20157;PMS5003;10239;56.820;24.416;2023-03-15T06:03:58;0.80;0.80;0.00
20157;PMS5003;10239;56.820;24.416;2023-03-15T06:06:29;0.00;0.00;0.00
20157;PMS5003;10239;56.820;24.416;2023-03-15T06:09:00;0.20;0.20;0.00
20157;PMS5003;10239;56.820;24.416;2023-03-15T06:11:28;1.00;1.00;0.00
20157;PMS5003;10239;56.820;24.416;2023-03-15T06:13:57;2.00;1.00;0.00
20157;PMS5003;10239;56.820;24.416;2023-03-15T06:16:39;1.20;1.20;0.00
20157;PMS5003;10239;56.820;24.416;2023-03-15T06:19:07;0.00;0.00;0.00
20157;PMS5003;10239;56.820;24.416;2023-03-15T06:21:34;3.00;1.00;0.20
20157;PMS5003;10239;56.820;24.416;2023-03-15T06:24:08;2.00;2.00;0.00
20157;PMS5003;10239;56.820;24.416;2023-03-15T06:26:36;0.80;0.00;0.00
20157;PMS5003;10239;56.820;24.416;2023-03-15T06:29:04;1.80;1.00;0.20
20157;PMS5003;10239;56.820;24.416;2023-03-15T06:31:32;2.00;2.00;0.80
20157;PMS5003;10239;56.820;24.416;2023-03-15T06:34:02;2.20;1.00;0.00
20157;PMS5003;10239;56.820;24.416;2023-03-15T06:36:32;1.00;1.00;1.00
20157;PMS5003;10239;56.820;24.416;2023-03-15T06:38:59;1.20;1.20;0.80
20157;PMS5003;10239;56.820;24.416;2023-03-15T06:41:28;3.40;1.00;0.60
20157;PMS5003;10239;56.820;24.416;2023-03-15T06:44:02;1.80;0.00;0.00
20157;PMS5003;10239;56.820;24.416;2023-03-15T06:46:31;1.00;1.00;0.00
20157;PMS5003;10239;56.820;24.416;2023-03-15T06:48:59;1.20;1.20;1.00
20157;PMS5003;10239;56.820;24.416;2023-03-15T06:51:27;0.20;0.20;0.00
20157;PMS5003;10239;56.820;24.416;2023-03-15T06:53:54;1.00;1.00;0.00
20157;PMS5003;10239;56.820;24.416;2023-03-15T06:56:22;0.80;0.80;0.00
20157;PMS5003;10239;56.820;24.416;2023-03-15T06:58:49;0.00;0.00;0.00
20157;PMS5003;10239;56.820;24.416;2023-03-15T07:01:17;0.60;0.60;0.00
20157;PMS5003;10239;56.820;24.416;2023-03-15T07:03:45;1.00;1.00;0.00
20157;PMS5003;10239;56.820;24.416;2023-03-15T07:06:14;1.60;1.60;0.00
20157;PMS5003;10239;56.820;24.416;2023-03-15T07:08:41;1.00;1.00;0.00
20157;PMS5003;10239;56.820;24.416;2023-03-15T07:11:09;1.00;0.00;0.00
20157;PMS5003;10239;56.820;24.416;2023-03-15T07:13:37;1.60;1.60;0.00
20157;PMS5003;10239;56.820;24.416;2023-03-15T07:16:04;0.00;0.00;0.00
20157;PMS5003;10239;56.820;24.416;2023-03-15T07:18:32;1.00;1.00;0.80
20157;PMS5003;10239;56.820;24.416;2023-03-15T07:21:01;0.60;0.60;0.00
20157;PMS5003;10239;56.820;24.416;2023-03-15T07:23:30;0.00;0.00;0.00
20157;PMS5003;10239;56.820;24.416;2023-03-15T07:25:58;0.00;0.00;0.00
20157;PMS5003;10239;56.820;24.416;2023-03-15T07:28:26;0.00;0.00;0.00
20157;PMS5003;10239;56.820;24.416;2023-03-15T07:33:26;0.00;0.00;0.00
20157;PMS5003;10239;56.820;24.416;2023-03-15T07:35:55;0.40;0.00;0.00
20157;PMS5003;10239;56.820;24.416;2023-03-15T07:38:24;1.20;0.00;0.00
20157;PMS5003;10239;56.820;24.416;2023-03-15T07:40:55;0.60;0.60;0.00
20157;PMS5003;10239;56.820;24.416;2023-03-15T07:43:23;0.80;0.60;0.00
20157;PMS5003;10239;56.820;24.416;2023-03-15T07:46:02;0.00;0.00;0.00
20157;PMS5003;10239;56.820;24.416;2023-03-15T07:48:29;0.40;0.40;0.00
20157;PMS5003;10239;56.820;24.416;2023-03-15T07:50:57;0.00;0.00;0.00
20157;PMS5003;10239;56.820;24.416;2023-03-15T07:53:24;0.00;0.00;0.00
20157;PMS5003;10239;56.820;24.416;2023-03-15T07:55:52;0.00;0.00;0.00
20157;PMS5003;10239;56.820;24.416;2023-03-15T07:58:19;0.20;0.20;0.00
20157;PMS5003;10239;56.820;24.416;2023-03-15T08:00:47;3.40;0.60;0.00
20157;PMS5003;10239;56.820;24.416;2023-03-15T08:03:14;1.00;1.00;0.00
20157;PMS5003;10239;56.820;24.416;2023-03-15T08:05:42;0.40;0.40;0.00
20157;PMS5003;10239;56.820;24.416;2023-03-15T08:08:09;0.00;0.00;0.00
20157;PMS5003;10239;56.820;24.416;2023-03-15T08:10:36;0.60;0.60;0.00
20157;PMS5003;10239;56.820;24.416;2023-03-15T08:13:04;4.80;1.00;0.00
20157;PMS5003;10239;56.820;24.416;2023-03-15T08:15:31;1.00;0.80;0.00
20157;PMS5003;10239;56.820;24.416;2023-03-15T08:17:59;0.60;0.60;0.00
20157;PMS5003;10239;56.820;24.416;2023-03-15T08:20:27;0.60;0.60;0.00
20157;PMS5003;10239;56.820;24.416;2023-03-15T08:22:55;0.00;0.00;0.00
20157;PMS5003;10239;56.820;24.416;2023-03-15T08:25:23;0.20;0.20;0.00
20157;PMS5003;10239;56.820;24.416;2023-03-15T08:27:52;1.40;1.40;0.00
20157;PMS5003;10239;56.820;24.416;2023-03-15T08:30:20;2.00;0.00;0.00
20157;PMS5003;10239;56.820;24.416;2023-03-15T08:32:49;0.00;0.00;0.00
20157;PMS5003;10239;56.820;24.416;2023-03-15T08:35:19;1.20;1.20;0.00
20157;PMS5003;10239;56.820;24.416;2023-03-15T08:37:47;1.60;1.60;0.00
20157;PMS5003;10239;56.820;24.416;2023-03-15T08:40:18;0.40;0.40;0.00
20157;PMS5003;10239;56.820;24.416;2023-03-15T08:42:53;1.00;1.00;0.00
20157;PMS5003;10239;56.820;24.416;2023-03-15T08:45:22;2.00;1.00;0.00
20157;PMS5003;10239;56.820;24.416;2023-03-15T08:47:57;2.00;0.20;0.00
20157;PMS5003;10239;56.820;24.416;2023-03-15T08:50:26;0.00;0.00;0.00
20157;PMS5003;10239;56.820;24.416;2023-03-15T08:52:57;1.00;1.00;0.60
20157;PMS5003;10239;56.820;24.416;2023-03-15T08:55:25;0.00;0.00;0.00
20157;PMS5003;10239;56.820;24.416;2023-03-15T08:57:52;2.00;0.20;0.20
20157;PMS5003;10239;56.820;24.416;2023-03-15T09:00:20;0.00;0.00;0.00
20157;PMS5003;10239;56.820;24.416;2023-03-15T09:02:50;1.00;1.00;0.00
20157;PMS5003;10239;56.820;24.416;2023-03-15T09:05:18;1.60;1.00;0.00
20157;PMS5003;10239;56.820;24.416;2023-03-15T09:07:47;0.80;0.80;0.00
20157;PMS5003;10239;56.820;24.416;2023-03-15T09:10:15;0.00;0.00;0.00
20157;PMS5003;10239;56.820;24.416;2023-03-15T09:12:47;0.80;0.80;0.00
20157;PMS5003;10239;56.820;24.416;2023-03-15T09:15:16;0.80;0.80;0.00
20157;PMS5003;10239;56.820;24.416;2023-03-15T09:17:44;1.00;1.00;0.00
20157;PMS5003;10239;56.820;24.416;2023-03-15T09:20:14;1.20;0.00;0.00
20157;PMS5003;10239;56.820;24.416;2023-03-15T09:22:51;0.00;0.00;0.00
20157;PMS5003;10239;56.820;24.416;2023-03-15T09:25:21;1.00;1.00;0.00
20157;PMS5003;10239;56.820;24.416;2023-03-15T09:27:49;1.20;1.00;0.00
20157;PMS5003;10239;56.820;24.416;2023-03-15T09:30:17;0.00;0.00;0.00
20157;PMS5003;10239;56.820;24.416;2023-03-15T09:32:44;0.00;0.00;0.00
20157;PMS5003;10239;56.820;24.416;2023-03-15T09:35:13;0.60;0.60;0.00
20157;PMS5003;10239;56.820;24.416;2023-03-15T09:37:43;0.00;0.00;0.00
20157;PMS5003;10239;56.820;24.416;2023-03-15T09:48:32;0.00;0.00;0.00
20157;PMS5003;10239;56.820;24.416;2023-03-15T09:51:03;0.00;0.00;0.00
20157;PMS5003;10239;56.820;24.416;2023-03-15T09:54:10;0.60;0.60;0.00
20157;PMS5003;10239;56.820;24.416;2023-03-15T09:56:48;0.00;0.00;0.00
20157;PMS5003;10239;56.820;24.416;2023-03-15T09:59:27;0.00;0.00;0.00
20157;PMS5003;10239;56.820;24.416;2023-03-15T10:02:02;0.40;0.40;0.00
20157;PMS5003;10239;56.820;24.416;2023-03-15T10:04:43;0.40;0.00;0.00
20157;PMS5003;10239;56.820;24.416;2023-03-15T10:07:13;0.00;0.00;0.00
20157;PMS5003;10239;56.820;24.416;2023-03-15T10:09:42;0.00;0.00;0.00
20157;PMS5003;10239;56.820;24.416;2023-03-15T10:17:30;0.40;0.40;0.00
20157;PMS5003;10239;56.820;24.416;2023-03-15T10:20:11;0.00;0.00;0.00
20157;PMS5003;10239;56.820;24.416;2023-03-15T10:23:02;0.00;0.00;0.00
20157;PMS5003;10239;56.820;24.416;2023-03-15T10:25:31;0.00;0.00;0.00
20157;PMS5003;10239;56.820;24.416;2023-03-15T10:28:13;2.00;0.40;0.00
20157;PMS5003;10239;56.820;24.416;2023-03-15T10:30:47;0.00;0.00;0.00
20157;PMS5003;10239;56.820;24.416;2023-03-15T10:33:31;0.00;0.00;0.00
20157;PMS5003;10239;56.820;24.416;2023-03-15T10:36:02;0.40;0.40;0.00
20157;PMS5003;10239;56.820;24.416;2023-03-15T10:38:43;0.00;0.00;0.00
20157;PMS5003;10239;56.820;24.416;2023-03-15T10:41:12;0.20;0.00;0.00
20157;PMS5003;10239;56.820;24.416;2023-03-15T10:43:59;0.00;0.00;0.00
20157;PMS5003;10239;56.820;24.416;2023-03-15T10:46:29;1.00;0.00;0.00
20157;PMS5003;10239;56.820;24.416;2023-03-15T10:48:58;0.00;0.00;0.00
20157;PMS5003;10239;56.820;24.416;2023-03-15T10:51:47;0.00;0.00;0.00
20157;PMS5003;10239;56.820;24.416;2023-03-15T10:56:54;0.00;0.00;0.00
20157;PMS5003;10239;56.820;24.416;2023-03-15T10:59:27;0.00;0.00;0.00
20157;PMS5003;10239;56.820;24.416;2023-03-15T11:04:43;0.00;0.00;0.00
20157;PMS5003;10239;56.820;24.416;2023-03-15T11:07:15;0.00;0.00;0.00
20157;PMS5003;10239;56.820;24.416;2023-03-15T11:09:52;0.00;0.00;0.00
20157;PMS5003;10239;56.820;24.416;2023-03-15T11:12:25;1.00;0.00;0.00
20157;PMS5003;10239;56.820;24.416;2023-03-15T11:14:59;0.00;0.00;0.00
20157;PMS5003;10239;56.820;24.416;2023-03-15T11:17:31;0.00;0.00;0.00
20157;PMS5003;10239;56.820;24.416;2023-03-15T11:20:02;0.80;0.00;0.00
20157;PMS5003;10239;56.820;24.416;2023-03-15T11:22:45;0.00;0.00;0.00
20157;PMS5003;10239;56.820;24.416;2023-03-15T11:25:13;0.00;0.00;0.00
20157;PMS5003;10239;56.820;24.416;2023-03-15T11:27:42;0.00;0.00;0.00
20157;PMS5003;10239;56.820;24.416;2023-03-15T11:30:13;0.00;0.00;0.00
20157;PMS5003;10239;56.820;24.416;2023-03-15T11:32:43;0.00;0.00;0.00
20157;PMS5003;10239;56.820;24.416;2023-03-15T11:35:13;0.00;0.00;0.00
20157;PMS5003;10239;56.820;24.416;2023-03-15T11:37:59;0.00;0.00;0.00
20157;PMS5003;10239;56.820;24.416;2023-03-15T11:40:41;0.00;0.00;0.00
20157;PMS5003;10239;56.820;24.416;2023-03-15T11:45:47;0.00;0.00;0.00
20157;PMS5003;10239;56.820;24.416;2023-03-15T11:48:46;0.00;0.00;0.00
20157;PMS5003;10239;56.820;24.416;2023-03-15T11:51:17;0.00;0.00;0.00
20157;PMS5003;10239;56.820;24.416;2023-03-15T11:59:18;0.00;0.00;0.00
20157;PMS5003;10239;56.820;24.416;2023-03-15T12:04:38;0.00;0.00;0.00
20157;PMS5003;10239;56.820;24.416;2023-03-15T12:12:46;0.00;0.00;0.00
20157;PMS5003;10239;56.820;24.416;2023-03-15T12:17:48;0.00;0.00;0.00
20157;PMS5003;10239;56.820;24.416;2023-03-15T12:22:53;1.60;0.80;0.00
20157;PMS5003;10239;56.820;24.416;2023-03-15T12:26:04;0.00;0.00;0.00
20157;PMS5003;10239;56.820;24.416;2023-03-15T12:31:17;0.00;0.00;0.00
20157;PMS5003;10239;56.820;24.416;2023-03-15T12:33:50;0.00;0.00;0.00
20157;PMS5003;10239;56.820;24.416;2023-03-15T12:41:47;0.00;0.00;0.00
20157;PMS5003;10239;56.820;24.416;2023-03-15T12:44:18;0.00;0.00;0.00
20157;PMS5003;10239;56.820;24.416;2023-03-15T12:51:58;0.00;0.00;0.00
20157;PMS5003;10239;56.820;24.416;2023-03-15T12:54:50;0.00;0.00;0.00
20157;PMS5003;10239;56.820;24.416;2023-03-15T12:57:26;0.80;0.00;0.00
20157;PMS5003;10239;56.820;24.416;2023-03-15T12:59:59;0.00;0.00;0.00
20157;PMS5003;10239;56.820;24.416;2023-03-15T13:03:24;2.40;0.00;0.00
20157;PMS5003;10239;56.820;24.416;2023-03-15T13:05:34;0.00;0.00;0.00
20157;PMS5003;10239;56.820;24.416;2023-03-15T13:08:51;0.00;0.00;0.00
20157;PMS5003;10239;56.820;24.416;2023-03-15T13:11:29;0.00;0.00;0.00
20157;PMS5003;10239;56.820;24.416;2023-03-15T13:14:35;0.20;0.20;0.00
20157;PMS5003;10239;56.820;24.416;2023-03-15T13:17:47;0.00;0.00;0.00
20157;PMS5003;10239;56.820;24.416;2023-03-15T13:20:51;1.00;1.00;0.00
20157;PMS5003;10239;56.820;24.416;2023-03-15T13:23:35;0.00;0.00;0.00
20157;PMS5003;10239;56.820;24.416;2023-03-15T13:29:13;0.60;0.60;0.00
20157;PMS5003;10239;56.820;24.416;2023-03-15T13:31:45;0.00;0.00;0.00
20157;PMS5003;10239;56.820;24.416;2023-03-15T13:34:25;0.00;0.00;0.00
20157;PMS5003;10239;56.820;24.416;2023-03-15T13:36:57;0.00;0.00;0.00
20157;PMS5003;10239;56.820;24.416;2023-03-15T13:39:29;0.00;0.00;0.00
20157;PMS5003;10239;56.820;24.416;2023-03-15T13:41:59;0.60;0.60;0.00
20157;PMS5003;10239;56.820;24.416;2023-03-15T13:44:27;0.80;0.00;0.00
20157;PMS5003;10239;56.820;24.416;2023-03-15T13:46:56;2.00;0.00;0.00
20157;PMS5003;10239;56.820;24.416;2023-03-15T13:49:28;0.00;0.00;0.00
20157;PMS5003;10239;56.820;24.416;2023-03-15T13:51:58;0.00;0.00;0.00
20157;PMS5003;10239;56.820;24.416;2023-03-15T13:54:34;0.00;0.00;0.00
20157;PMS5003;10239;56.820;24.416;2023-03-15T13:57:04;0.40;0.40;0.00
20157;PMS5003;10239;56.820;24.416;2023-03-15T14:02:14;0.00;0.00;0.00
20157;PMS5003;10239;56.820;24.416;2023-03-15T14:04:50;0.00;0.00;0.00
20157;PMS5003;10239;56.820;24.416;2023-03-15T14:07:32;0.00;0.00;0.00
20157;PMS5003;10239;56.820;24.416;2023-03-15T14:12:53;0.00;0.00;0.00
20157;PMS5003;10239;56.820;24.416;2023-03-15T14:15:32;0.00;0.00;0.00
20157;PMS5003;10239;56.820;24.416;2023-03-15T14:18:10;0.40;0.00;0.00
20157;PMS5003;10239;56.820;24.416;2023-03-15T14:20:44;0.60;0.60;0.00
20157;PMS5003;10239;56.820;24.416;2023-03-15T14:23:21;0.20;0.20;0.00
20157;PMS5003;10239;56.820;24.416;2023-03-15T14:25:51;0.00;0.00;0.00
20157;PMS5003;10239;56.820;24.416;2023-03-15T14:28:21;0.00;0.00;0.00
20157;PMS5003;10239;56.820;24.416;2023-03-15T14:30:52;0.00;0.00;0.00
20157;PMS5003;10239;56.820;24.416;2023-03-15T14:36:03;0.00;0.00;0.00
20157;PMS5003;10239;56.820;24.416;2023-03-15T14:38:37;0.00;0.00;0.00
20157;PMS5003;10239;56.820;24.416;2023-03-15T14:41:10;0.00;0.00;0.00
20157;PMS5003;10239;56.820;24.416;2023-03-15T14:43:46;0.00;0.00;0.00
20157;PMS5003;10239;56.820;24.416;2023-03-15T14:46:14;0.00;0.00;0.00
20157;PMS5003;10239;56.820;24.416;2023-03-15T14:48:41;0.00;0.00;0.00
20157;PMS5003;10239;56.820;24.416;2023-03-15T14:51:14;0.00;0.00;0.00
20157;PMS5003;10239;56.820;24.416;2023-03-15T14:53:43;0.00;0.00;0.00
20157;PMS5003;10239;56.820;24.416;2023-03-15T14:56:14;0.00;0.00;0.00
20157;PMS5003;10239;56.820;24.416;2023-03-15T14:58:44;0.00;0.00;0.00
20157;PMS5003;10239;56.820;24.416;2023-03-15T15:01:13;0.00;0.00;0.00
20157;PMS5003;10239;56.820;24.416;2023-03-15T15:03:47;0.00;0.00;0.00
20157;PMS5003;10239;56.820;24.416;2023-03-15T15:06:28;0.00;0.00;0.00
20157;PMS5003;10239;56.820;24.416;2023-03-15T15:08:58;0.00;0.00;0.00
20157;PMS5003;10239;56.820;24.416;2023-03-15T15:11:27;0.00;0.00;0.00
20157;PMS5003;10239;56.820;24.416;2023-03-15T15:13:55;0.00;0.00;0.00
20157;PMS5003;10239;56.820;24.416;2023-03-15T15:16:23;0.00;0.00;0.00
20157;PMS5003;10239;56.820;24.416;2023-03-15T15:18:51;0.00;0.00;0.00
20157;PMS5003;10239;56.820;24.416;2023-03-15T15:21:26;0.00;0.00;0.00
20157;PMS5003;10239;56.820;24.416;2023-03-15T15:24:00;0.00;0.00;0.00
20157;PMS5003;10239;56.820;24.416;2023-03-15T15:26:30;0.00;0.00;0.00
20157;PMS5003;10239;56.820;24.416;2023-03-15T15:28:58;0.00;0.00;0.00
20157;PMS5003;10239;56.820;24.416;2023-03-15T15:31:27;0.00;0.00;0.00
20157;PMS5003;10239;56.820;24.416;2023-03-15T15:33:55;0.00;0.00;0.00
20157;PMS5003;10239;56.820;24.416;2023-03-15T15:36:27;0.00;0.00;0.00
20157;PMS5003;10239;56.820;24.416;2023-03-15T15:38:58;0.00;0.00;0.00
20157;PMS5003;10239;56.820;24.416;2023-03-15T15:41:33;2.00;0.00;0.00
20157;PMS5003;10239;56.820;24.416;2023-03-15T15:44:01;0.00;0.00;0.00
20157;PMS5003;10239;56.820;24.416;2023-03-15T15:46:28;0.00;0.00;0.00
20157;PMS5003;10239;56.820;24.416;2023-03-15T15:48:55;1.20;0.40;0.00
20157;PMS5003;10239;56.820;24.416;2023-03-15T15:51:26;0.00;0.00;0.00
20157;PMS5003;10239;56.820;24.416;2023-03-15T15:53:58;0.60;0.60;0.00
20157;PMS5003;10239;56.820;24.416;2023-03-15T15:56:36;0.00;0.00;0.00
20157;PMS5003;10239;56.820;24.416;2023-03-15T15:59:05;0.00;0.00;0.00